KBDL/BDL METAR and TAF weather

Enter ICAO airport designator
Station Type Date Time Source
KBDL METAR 2019/08/19 02:14 UTC NOAA

KBDL 190214Z 23004KT 10SM -RA FEW070 SCT140 BKN230 26/21 A2998 RMK AO2 LTG DSNT SE RAB12 OCNL LTGCG DSNT E CB DSNT E P0000 T02560211


Station Type Date Time Source
KBDL Decoded METAR 2019/08/19 02:14 UTC NOAA

Station name not available
Aug 18, 2019 - 10:14 PM EDT / 2019.08.19 0214 UTC
Wind: from the SW (230 degrees) at 5 MPH (4 KT):0
Visibility: 10 mile(s):0
Sky conditions: mostly cloudy
Weather: light rain; Cumulonimbus clouds, lightning observed
Precipitation last hour: A trace
Temperature: 78.1 F (25.6 C)
Dew Point: 70.0 F (21.1 C)
Relative Humidity: 76%
Pressure (altimeter): 29.98 in. Hg (1015 hPa)
ob: KBDL 190214Z 23004KT 10SM -RA FEW070 SCT140 BKN230 26/21 A2998 RMK AO2 LTG DSNT SE RAB12 OCNL LTGCG DSNT E CB DSNT E P0000 T02560211
cycle: 2

Station Type Date Time Source
KBDL TAF 2019/08/19 01:09 UTC NOAA

TAF
AMD KBDL 190106Z 1901/2006 22006KT P6SM BKN200 BKN250
FM190130 18006KT 5SM -SHRA VCTS SCT020 BKN080CB
FM190400 18003KT P6SM VCSH BKN010
FM190900 18003KT 6SM BR BKN003
FM191600 21006KT P6SM SCT150
FM200000 20007KT P6SM VCSH BKN010
FM200200 22005KT P6SM BKN080

Example: see airport list